sensor_id;sensor_type;location;lat;lon;timestamp;temperature;humidity
63277;DHT22;49403;51.046;13.780;2023-07-09T00:00:26;24.10;54.60
63277;DHT22;49403;51.046;13.780;2023-07-09T00:00:57;24.10;55.40
63277;DHT22;49403;51.046;13.780;2023-07-09T00:01:27;24.10;54.70
63277;DHT22;49403;51.046;13.780;2023-07-09T00:01:58;24.10;54.70
63277;DHT22;49403;51.046;13.780;2023-07-09T00:02:29;24.20;54.90
63277;DHT22;49403;51.046;13.780;2023-07-09T00:03:00;24.20;54.80
63277;DHT22;49403;51.046;13.780;2023-07-09T00:03:31;24.10;54.80
63277;DHT22;49403;51.046;13.780;2023-07-09T00:04:02;24.10;54.80
63277;DHT22;49403;51.046;13.780;2023-07-09T00:04:33;24.10;54.80
63277;DHT22;49403;51.046;13.780;2023-07-09T00:05:04;24.10;54.80
63277;DHT22;49403;51.046;13.780;2023-07-09T00:05:35;24.00;54.80
63277;DHT22;49403;51.046;13.780;2023-07-09T00:06:07;24.00;54.90
63277;DHT22;49403;51.046;13.780;2023-07-09T00:06:38;24.00;54.90
63277;DHT22;49403;51.046;13.780;2023-07-09T00:07:28;24.00;54.90
63277;DHT22;49403;51.046;13.780;2023-07-09T00:07:59;24.10;54.90
63277;DHT22;49403;51.046;13.780;2023-07-09T00:08:30;24.00;55.00
63277;DHT22;49403;51.046;13.780;2023-07-09T00:09:02;24.00;55.00
63277;DHT22;49403;51.046;13.780;2023-07-09T00:09:33;24.00;55.10
63277;DHT22;49403;51.046;13.780;2023-07-09T00:10:06;24.00;55.10
63277;DHT22;49403;51.046;13.780;2023-07-09T00:10:43;24.00;55.00
63277;DHT22;49403;51.046;13.780;2023-07-09T00:11:15;23.50;54.60
63277;DHT22;49403;51.046;13.780;2023-07-09T00:11:46;24.00;55.00
63277;DHT22;49403;51.046;13.780;2023-07-09T00:12:18;24.00;55.00
63277;DHT22;49403;51.046;13.780;2023-07-09T00:12:49;24.20;55.20
63277;DHT22;49403;51.046;13.780;2023-07-09T00:13:21;23.90;54.80
63277;DHT22;49403;51.046;13.780;2023-07-09T00:13:52;23.90;54.80
63277;DHT22;49403;51.046;13.780;2023-07-09T00:14:22;23.90;54.80
63277;DHT22;49403;51.046;13.780;2023-07-09T00:14:53;23.90;54.90
63277;DHT22;49403;51.046;13.780;2023-07-09T00:15:25;24.50;55.40
63277;DHT22;49403;51.046;13.780;2023-07-09T00:15:57;23.90;54.80
63277;DHT22;49403;51.046;13.780;2023-07-09T00:16:29;24.00;55.00
63277;DHT22;49403;51.046;13.780;2023-07-09T00:17:00;23.70;54.80
63277;DHT22;49403;51.046;13.780;2023-07-09T00:17:32;23.90;54.80
63277;DHT22;49403;51.046;13.780;2023-07-09T00:18:07;23.90;54.70
63277;DHT22;49403;51.046;13.780;2023-07-09T00:18:38;25.30;55.80
63277;DHT22;49403;51.046;13.780;2023-07-09T00:19:13;23.90;54.50
63277;DHT22;49403;51.046;13.780;2023-07-09T00:19:46;23.90;54.40
63277;DHT22;49403;51.046;13.780;2023-07-09T00:20:17;23.90;54.50
63277;DHT22;49403;51.046;13.780;2023-07-09T00:20:48;23.90;54.40
63277;DHT22;49403;51.046;13.780;2023-07-09T00:21:20;23.90;54.40
63277;DHT22;49403;51.046;13.780;2023-07-09T00:21:51;23.70;54.20
63277;DHT22;49403;51.046;13.780;2023-07-09T00:22:23;23.40;53.90
63277;DHT22;49403;51.046;13.780;2023-07-09T00:22:54;23.80;54.30
63277;DHT22;49403;51.046;13.780;2023-07-09T00:23:25;23.80;54.20
63277;DHT22;49403;51.046;13.780;2023-07-09T00:23:57;23.80;54.20
63277;DHT22;49403;51.046;13.780;2023-07-09T00:24:35;23.80;54.20
63277;DHT22;49403;51.046;13.780;2023-07-09T00:25:07;23.80;53.90
63277;DHT22;49403;51.046;13.780;2023-07-09T00:25:38;23.80;53.90
63277;DHT22;49403;51.046;13.780;2023-07-09T00:26:12;23.80;53.90
63277;DHT22;49403;51.046;13.780;2023-07-09T00:26:46;23.70;53.70
63277;DHT22;49403;51.046;13.780;2023-07-09T00:27:20;23.70;54.50
63277;DHT22;49403;51.046;13.780;2023-07-09T00:27:51;23.70;54.00
63277;DHT22;49403;51.046;13.780;2023-07-09T00:28:24;23.70;53.90
63277;DHT22;49403;51.046;13.780;2023-07-09T00:28:55;23.70;54.00
63277;DHT22;49403;51.046;13.780;2023-07-09T00:29:26;23.70;54.10
63277;DHT22;49403;51.046;13.780;2023-07-09T00:29:57;23.30;53.80
63277;DHT22;49403;51.046;13.780;2023-07-09T00:30:28;23.60;54.00
63277;DHT22;49403;51.046;13.780;2023-07-09T00:31:00;23.70;54.10
63277;DHT22;49403;51.046;13.780;2023-07-09T00:31:31;23.60;54.10
63277;DHT22;49403;51.046;13.780;2023-07-09T00:32:02;23.60;53.90
63277;DHT22;49403;51.046;13.780;2023-07-09T00:32:32;23.60;53.90
63277;DHT22;49403;51.046;13.780;2023-07-09T00:33:14;23.60;54.00
63277;DHT22;49403;51.046;13.780;2023-07-09T00:33:45;23.50;53.90
63277;DHT22;49403;51.046;13.780;2023-07-09T00:34:17;23.50;53.90
63277;DHT22;49403;51.046;13.780;2023-07-09T00:34:48;23.50;53.90
63277;DHT22;49403;51.046;13.780;2023-07-09T00:35:20;23.50;54.00
63277;DHT22;49403;51.046;13.780;2023-07-09T00:35:51;23.40;54.20
63277;DHT22;49403;51.046;13.780;2023-07-09T00:36:26;23.40;54.30
63277;DHT22;49403;51.046;13.780;2023-07-09T00:36:58;23.40;54.30
63277;DHT22;49403;51.046;13.780;2023-07-09T00:37:29;23.30;54.30
63277;DHT22;49403;51.046;13.780;2023-07-09T00:38:00;23.30;54.40
63277;DHT22;49403;51.046;13.780;2023-07-09T00:38:31;23.30;54.50
63277;DHT22;49403;51.046;13.780;2023-07-09T00:39:14;23.20;55.20
63277;DHT22;49403;51.046;13.780;2023-07-09T00:39:46;23.20;54.80
63277;DHT22;49403;51.046;13.780;2023-07-09T00:40:20;23.10;54.80
63277;DHT22;49403;51.046;13.780;2023-07-09T00:41:01;23.10;54.90
63277;DHT22;49403;51.046;13.780;2023-07-09T00:41:34;23.10;54.90
63277;DHT22;49403;51.046;13.780;2023-07-09T00:42:05;23.00;55.00
63277;DHT22;49403;51.046;13.780;2023-07-09T00:42:37;21.70;53.90
63277;DHT22;49403;51.046;13.780;2023-07-09T00:43:10;23.00;55.00
63277;DHT22;49403;51.046;13.780;2023-07-09T00:43:45;23.10;55.20
63277;DHT22;49403;51.046;13.780;2023-07-09T00:44:51;23.00;55.10
63277;DHT22;49403;51.046;13.780;2023-07-09T00:45:23;22.90;55.20
63277;DHT22;49403;51.046;13.780;2023-07-09T00:47:20;22.90;55.30
63277;DHT22;49403;51.046;13.780;2023-07-09T00:47:52;22.90;55.40
63277;DHT22;49403;51.046;13.780;2023-07-09T00:48:24;22.80;55.30
63277;DHT22;49403;51.046;13.780;2023-07-09T00:49:32;22.20;55.10
63277;DHT22;49403;51.046;13.780;2023-07-09T00:50:06;22.80;55.50
63277;DHT22;49403;51.046;13.780;2023-07-09T00:50:40;24.40;57.00
63277;DHT22;49403;51.046;13.780;2023-07-09T00:51:16;22.80;55.60
63277;DHT22;49403;51.046;13.780;2023-07-09T00:51:51;22.90;55.70
63277;DHT22;49403;51.046;13.780;2023-07-09T00:52:27;22.90;55.70
63277;DHT22;49403;51.046;13.780;2023-07-09T00:53:09;22.90;55.50
63277;DHT22;49403;51.046;13.780;2023-07-09T00:53:43;22.80;55.50
63277;DHT22;49403;51.046;13.780;2023-07-09T00:55:18;22.80;55.40
63277;DHT22;49403;51.046;13.780;2023-07-09T00:55:51;22.90;55.70
63277;DHT22;49403;51.046;13.780;2023-07-09T00:57:01;24.10;56.50
63277;DHT22;49403;51.046;13.780;2023-07-09T00:57:36;23.60;56.10
63277;DHT22;49403;51.046;13.780;2023-07-09T00:58:09;22.90;55.60
63277;DHT22;49403;51.046;13.780;2023-07-09T00:58:42;22.90;55.60
63277;DHT22;49403;51.046;13.780;2023-07-09T00:59:14;22.90;55.70
63277;DHT22;49403;51.046;13.780;2023-07-09T00:59:47;22.90;55.80
63277;DHT22;49403;51.046;13.780;2023-07-09T01:00:19;22.60;55.60
63277;DHT22;49403;51.046;13.780;2023-07-09T01:00:50;22.80;56.00
63277;DHT22;49403;51.046;13.780;2023-07-09T01:01:23;22.60;55.80
63277;DHT22;49403;51.046;13.780;2023-07-09T01:01:54;22.80;56.10
63277;DHT22;49403;51.046;13.780;2023-07-09T01:02:26;22.80;56.20
63277;DHT22;49403;51.046;13.780;2023-07-09T01:02:57;22.70;56.10
63277;DHT22;49403;51.046;13.780;2023-07-09T01:03:35;22.70;56.20
63277;DHT22;49403;51.046;13.780;2023-07-09T01:04:07;22.80;56.30
63277;DHT22;49403;51.046;13.780;2023-07-09T01:04:39;22.60;56.20
63277;DHT22;49403;51.046;13.780;2023-07-09T01:05:11;22.60;56.20
63277;DHT22;49403;51.046;13.780;2023-07-09T01:05:43;22.60;56.30
63277;DHT22;49403;51.046;13.780;2023-07-09T01:06:15;22.60;56.40
63277;DHT22;49403;51.046;13.780;2023-07-09T01:06:49;22.60;56.30
63277;DHT22;49403;51.046;13.780;2023-07-09T01:07:21;22.70;56.50
63277;DHT22;49403;51.046;13.780;2023-07-09T01:07:52;22.70;56.50
63277;DHT22;49403;51.046;13.780;2023-07-09T01:08:23;22.50;56.20
63277;DHT22;49403;51.046;13.780;2023-07-09T01:08:54;22.70;57.10
63277;DHT22;49403;51.046;13.780;2023-07-09T01:09:26;22.70;56.40
63277;DHT22;49403;51.046;13.780;2023-07-09T01:09:57;22.70;56.40
63277;DHT22;49403;51.046;13.780;2023-07-09T01:10:28;22.50;56.40
63277;DHT22;49403;51.046;13.780;2023-07-09T01:10:59;23.90;57.40
63277;DHT22;49403;51.046;13.780;2023-07-09T01:11:30;22.70;56.50
63277;DHT22;49403;51.046;13.780;2023-07-09T01:12:03;22.70;56.50
63277;DHT22;49403;51.046;13.780;2023-07-09T01:12:35;22.70;56.50
63277;DHT22;49403;51.046;13.780;2023-07-09T01:13:06;22.60;56.90
63277;DHT22;49403;51.046;13.780;2023-07-09T01:13:38;22.60;56.40
63277;DHT22;49403;51.046;13.780;2023-07-09T01:14:11;22.60;56.40
63277;DHT22;49403;51.046;13.780;2023-07-09T01:14:43;22.60;56.40
63277;DHT22;49403;51.046;13.780;2023-07-09T01:15:17;22.50;56.40
63277;DHT22;49403;51.046;13.780;2023-07-09T01:15:48;22.50;56.50
63277;DHT22;49403;51.046;13.780;2023-07-09T01:16:19;22.50;56.50
63277;DHT22;49403;51.046;13.780;2023-07-09T01:16:58;21.90;56.10
63277;DHT22;49403;51.046;13.780;2023-07-09T01:17:30;22.50;56.40
63277;DHT22;49403;51.046;13.780;2023-07-09T01:18:01;22.60;56.80
63277;DHT22;49403;51.046;13.780;2023-07-09T01:18:32;23.40;57.30
63277;DHT22;49403;51.046;13.780;2023-07-09T01:19:04;22.60;56.60
63277;DHT22;49403;51.046;13.780;2023-07-09T01:19:37;22.40;56.40
63277;DHT22;49403;51.046;13.780;2023-07-09T01:20:15;22.60;56.50
63277;DHT22;49403;51.046;13.780;2023-07-09T01:20:47;22.50;56.50
63277;DHT22;49403;51.046;13.780;2023-07-09T01:21:17;22.50;56.40
63277;DHT22;49403;51.046;13.780;2023-07-09T01:21:48;22.50;56.20
63277;DHT22;49403;51.046;13.780;2023-07-09T01:22:21;22.50;56.20
63277;DHT22;49403;51.046;13.780;2023-07-09T01:22:52;22.50;56.20
63277;DHT22;49403;51.046;13.780;2023-07-09T01:23:27;22.50;56.30
63277;DHT22;49403;51.046;13.780;2023-07-09T01:23:58;22.60;56.10
63277;DHT22;49403;51.046;13.780;2023-07-09T01:25:24;22.80;56.00
63277;DHT22;49403;51.046;13.780;2023-07-09T01:25:55;22.50;56.10
63277;DHT22;49403;51.046;13.780;2023-07-09T01:26:26;22.10;55.90
63277;DHT22;49403;51.046;13.780;2023-07-09T01:26:58;22.40;56.30
63277;DHT22;49403;51.046;13.780;2023-07-09T01:27:34;22.40;56.50
63277;DHT22;49403;51.046;13.780;2023-07-09T01:28:06;22.20;56.30
63277;DHT22;49403;51.046;13.780;2023-07-09T01:28:37;22.20;56.50
63277;DHT22;49403;51.046;13.780;2023-07-09T01:29:08;22.30;56.80
63277;DHT22;49403;51.046;13.780;2023-07-09T01:29:39;22.30;56.90
63277;DHT22;49403;51.046;13.780;2023-07-09T01:30:16;22.20;56.80
63277;DHT22;49403;51.046;13.780;2023-07-09T01:30:47;22.20;56.80
63277;DHT22;49403;51.046;13.780;2023-07-09T01:31:24;22.20;57.00
63277;DHT22;49403;51.046;13.780;2023-07-09T01:31:55;22.20;57.10
63277;DHT22;49403;51.046;13.780;2023-07-09T01:32:26;22.20;57.20
63277;DHT22;49403;51.046;13.780;2023-07-09T01:32:59;22.20;57.10
63277;DHT22;49403;51.046;13.780;2023-07-09T01:33:31;21.70;56.60
63277;DHT22;49403;51.046;13.780;2023-07-09T01:34:02;22.40;57.20
63277;DHT22;49403;51.046;13.780;2023-07-09T01:34:33;22.60;57.30
63277;DHT22;49403;51.046;13.780;2023-07-09T01:35:04;21.40;56.30
63277;DHT22;49403;51.046;13.780;2023-07-09T01:35:38;22.20;57.00
63277;DHT22;49403;51.046;13.780;2023-07-09T01:36:12;22.20;56.90
63277;DHT22;49403;51.046;13.780;2023-07-09T01:36:46;22.20;56.90
63277;DHT22;49403;51.046;13.780;2023-07-09T01:37:17;21.70;56.50
63277;DHT22;49403;51.046;13.780;2023-07-09T01:37:49;22.20;57.10
63277;DHT22;49403;51.046;13.780;2023-07-09T01:38:20;22.20;57.00
63277;DHT22;49403;51.046;13.780;2023-07-09T01:38:51;22.10;56.90
63277;DHT22;49403;51.046;13.780;2023-07-09T01:39:25;22.20;56.90
63277;DHT22;49403;51.046;13.780;2023-07-09T01:39:56;22.20;56.80
63277;DHT22;49403;51.046;13.780;2023-07-09T01:40:28;22.20;56.80
63277;DHT22;49403;51.046;13.780;2023-07-09T01:40:59;22.20;56.80
63277;DHT22;49403;51.046;13.780;2023-07-09T01:41:30;22.10;57.50
63277;DHT22;49403;51.046;13.780;2023-07-09T01:42:04;22.10;56.90
63277;DHT22;49403;51.046;13.780;2023-07-09T01:42:36;21.40;56.30
63277;DHT22;49403;51.046;13.780;2023-07-09T01:43:09;22.10;57.00
63277;DHT22;49403;51.046;13.780;2023-07-09T01:43:40;22.00;57.10
63277;DHT22;49403;51.046;13.780;2023-07-09T01:44:11;22.00;57.10
63277;DHT22;49403;51.046;13.780;2023-07-09T01:44:44;23.00;58.10
63277;DHT22;49403;51.046;13.780;2023-07-09T01:45:16;21.60;56.80
63277;DHT22;49403;51.046;13.780;2023-07-09T01:45:47;22.00;57.20
63277;DHT22;49403;51.046;13.780;2023-07-09T01:46:20;21.90;57.30
63277;DHT22;49403;51.046;13.780;2023-07-09T01:46:52;21.90;57.20
63277;DHT22;49403;51.046;13.780;2023-07-09T01:47:23;21.90;57.30
63277;DHT22;49403;51.046;13.780;2023-07-09T01:47:54;21.90;57.30
63277;DHT22;49403;51.046;13.780;2023-07-09T01:48:26;21.90;57.50
63277;DHT22;49403;51.046;13.780;2023-07-09T01:48:57;21.90;57.50
63277;DHT22;49403;51.046;13.780;2023-07-09T01:49:28;22.20;57.70
63277;DHT22;49403;51.046;13.780;2023-07-09T01:50:02;21.90;57.50
63277;DHT22;49403;51.046;13.780;2023-07-09T01:50:33;21.90;57.50
63277;DHT22;49403;51.046;13.780;2023-07-09T01:51:04;21.90;57.60
63277;DHT22;49403;51.046;13.780;2023-07-09T01:51:35;21.80;57.50
63277;DHT22;49403;51.046;13.780;2023-07-09T01:52:08;21.80;57.50
63277;DHT22;49403;51.046;13.780;2023-07-09T01:52:40;21.90;57.80
63277;DHT22;49403;51.046;13.780;2023-07-09T01:53:12;20.80;56.80
63277;DHT22;49403;51.046;13.780;2023-07-09T01:53:43;21.00;57.00
63277;DHT22;49403;51.046;13.780;2023-07-09T01:54:17;21.80;57.80
63277;DHT22;49403;51.046;13.780;2023-07-09T01:54:48;21.70;57.70
63277;DHT22;49403;51.046;13.780;2023-07-09T01:55:20;21.80;57.90
63277;DHT22;49403;51.046;13.780;2023-07-09T01:55:51;21.80;57.80
63277;DHT22;49403;51.046;13.780;2023-07-09T01:56:24;21.70;57.80
63277;DHT22;49403;51.046;13.780;2023-07-09T01:57:11;21.70;57.80
63277;DHT22;49403;51.046;13.780;2023-07-09T01:57:43;21.70;57.80
63277;DHT22;49403;51.046;13.780;2023-07-09T01:58:14;21.80;58.00
63277;DHT22;49403;51.046;13.780;2023-07-09T01:58:46;21.70;57.90
63277;DHT22;49403;51.046;13.780;2023-07-09T01:59:18;20.80;57.30
63277;DHT22;49403;51.046;13.780;2023-07-09T01:59:54;21.70;58.10
63277;DHT22;49403;51.046;13.780;2023-07-09T02:00:28;21.70;58.10
63277;DHT22;49403;51.046;13.780;2023-07-09T02:01:02;21.60;58.00
63277;DHT22;49403;51.046;13.780;2023-07-09T02:01:33;22.10;58.40
63277;DHT22;49403;51.046;13.780;2023-07-09T02:02:04;21.70;58.00
63277;DHT22;49403;51.046;13.780;2023-07-09T02:02:35;21.90;58.20
63277;DHT22;49403;51.046;13.780;2023-07-09T02:03:06;21.60;57.80
63277;DHT22;49403;51.046;13.780;2023-07-09T02:03:37;21.80;58.10
63277;DHT22;49403;51.046;13.780;2023-07-09T02:04:08;21.80;58.10
63277;DHT22;49403;51.046;13.780;2023-07-09T02:04:39;21.90;58.10
63277;DHT22;49403;51.046;13.780;2023-07-09T02:05:17;21.70;58.10
63277;DHT22;49403;51.046;13.780;2023-07-09T02:05:48;21.70;58.10
63277;DHT22;49403;51.046;13.780;2023-07-09T02:06:22;21.70;58.50
63277;DHT22;49403;51.046;13.780;2023-07-09T02:06:54;21.70;58.40
63277;DHT22;49403;51.046;13.780;2023-07-09T02:07:25;21.50;58.40
63277;DHT22;49403;51.046;13.780;2023-07-09T02:07:56;21.60;58.50
63277;DHT22;49403;51.046;13.780;2023-07-09T02:08:27;21.60;59.20
63277;DHT22;49403;51.046;13.780;2023-07-09T02:08:58;21.60;58.60
63277;DHT22;49403;51.046;13.780;2023-07-09T02:09:32;22.80;59.80
63277;DHT22;49403;51.046;13.780;2023-07-09T02:10:03;21.50;58.70
63277;DHT22;49403;51.046;13.780;2023-07-09T02:10:34;21.40;58.70
63277;DHT22;49403;51.046;13.780;2023-07-09T02:11:05;21.50;58.90
63277;DHT22;49403;51.046;13.780;2023-07-09T02:11:36;21.40;58.90
63277;DHT22;49403;51.046;13.780;2023-07-09T02:12:07;21.40;59.10
63277;DHT22;49403;51.046;13.780;2023-07-09T02:12:38;21.40;59.20
63277;DHT22;49403;51.046;13.780;2023-07-09T02:13:09;21.40;59.20
63277;DHT22;49403;51.046;13.780;2023-07-09T02:13:42;21.30;59.20
63277;DHT22;49403;51.046;13.780;2023-07-09T02:14:16;21.30;59.30
63277;DHT22;49403;51.046;13.780;2023-07-09T02:14:47;21.30;59.40
63277;DHT22;49403;51.046;13.780;2023-07-09T02:15:18;21.30;59.50
63277;DHT22;49403;51.046;13.780;2023-07-09T02:15:49;21.20;59.50
63277;DHT22;49403;51.046;13.780;2023-07-09T02:16:20;21.20;59.60
63277;DHT22;49403;51.046;13.780;2023-07-09T02:16:51;21.20;59.80
63277;DHT22;49403;51.046;13.780;2023-07-09T02:17:25;21.20;59.80
63277;DHT22;49403;51.046;13.780;2023-07-09T02:17:56;21.20;59.90
63277;DHT22;49403;51.046;13.780;2023-07-09T02:18:29;21.20;60.50
63277;DHT22;49403;51.046;13.780;2023-07-09T02:19:03;21.10;59.70
63277;DHT22;49403;51.046;13.780;2023-07-09T02:19:34;21.10;59.80
63277;DHT22;49403;51.046;13.780;2023-07-09T02:20:06;20.40;59.20
63277;DHT22;49403;51.046;13.780;2023-07-09T02:20:37;21.10;59.80
63277;DHT22;49403;51.046;13.780;2023-07-09T02:21:11;21.10;59.90
63277;DHT22;49403;51.046;13.780;2023-07-09T02:21:45;21.10;59.80
63277;DHT22;49403;51.046;13.780;2023-07-09T02:22:16;21.10;59.70
63277;DHT22;49403;51.046;13.780;2023-07-09T02:22:50;21.10;59.80
63277;DHT22;49403;51.046;13.780;2023-07-09T02:23:25;21.10;60.00
63277;DHT22;49403;51.046;13.780;2023-07-09T02:23:56;21.10;60.00
63277;DHT22;49403;51.046;13.780;2023-07-09T02:24:27;21.10;59.90
63277;DHT22;49403;51.046;13.780;2023-07-09T02:24:58;21.10;59.80
63277;DHT22;49403;51.046;13.780;2023-07-09T02:25:32;21.10;59.90
63277;DHT22;49403;51.046;13.780;2023-07-09T02:26:04;21.10;59.80
63277;DHT22;49403;51.046;13.780;2023-07-09T02:26:35;21.10;59.80
63277;DHT22;49403;51.046;13.780;2023-07-09T02:27:06;21.10;59.80
63277;DHT22;49403;51.046;13.780;2023-07-09T02:27:37;21.10;59.80
63277;DHT22;49403;51.046;13.780;2023-07-09T02:28:08;20.40;59.20
63277;DHT22;49403;51.046;13.780;2023-07-09T02:28:39;21.10;59.70
63277;DHT22;49403;51.046;13.780;2023-07-09T02:29:10;21.00;59.70
63277;DHT22;49403;51.046;13.780;2023-07-09T02:29:41;21.00;59.80
63277;DHT22;49403;51.046;13.780;2023-07-09T02:30:15;21.10;59.80
63277;DHT22;49403;51.046;13.780;2023-07-09T02:30:46;21.00;59.70
63277;DHT22;49403;51.046;13.780;2023-07-09T02:31:17;21.10;59.90
63277;DHT22;49403;51.046;13.780;2023-07-09T02:31:50;22.80;61.60
63277;DHT22;49403;51.046;13.780;2023-07-09T02:32:23;21.00;59.80
63277;DHT22;49403;51.046;13.780;2023-07-09T02:32:54;21.00;59.80
63277;DHT22;49403;51.046;13.780;2023-07-09T02:33:25;21.00;59.80
63277;DHT22;49403;51.046;13.780;2023-07-09T02:33:56;21.00;59.80
63277;DHT22;49403;51.046;13.780;2023-07-09T02:34:28;21.00;59.80
63277;DHT22;49403;51.046;13.780;2023-07-09T02:34:59;21.00;59.70
63277;DHT22;49403;51.046;13.780;2023-07-09T02:35:30;21.00;59.80
63277;DHT22;49403;51.046;13.780;2023-07-09T02:36:01;21.00;59.80
63277;DHT22;49403;51.046;13.780;2023-07-09T02:36:32;20.90;59.70
63277;DHT22;49403;51.046;13.780;2023-07-09T02:37:02;21.00;59.70
63277;DHT22;49403;51.046;13.780;2023-07-09T02:37:33;21.00;59.70
63277;DHT22;49403;51.046;13.780;2023-07-09T02:38:04;21.00;59.70
63277;DHT22;49403;51.046;13.780;2023-07-09T02:38:35;20.90;59.70
63277;DHT22;49403;51.046;13.780;2023-07-09T02:39:06;20.90;59.80
63277;DHT22;49403;51.046;13.780;2023-07-09T02:39:37;20.90;59.80
63277;DHT22;49403;51.046;13.780;2023-07-09T02:40:08;20.90;59.80
63277;DHT22;49403;51.046;13.780;2023-07-09T02:40:40;20.90;59.60
63277;DHT22;49403;51.046;13.780;2023-07-09T02:41:10;20.90;59.80
63277;DHT22;49403;51.046;13.780;2023-07-09T02:41:41;20.90;59.70
63277;DHT22;49403;51.046;13.780;2023-07-09T02:42:13;20.80;59.60
63277;DHT22;49403;51.046;13.780;2023-07-09T02:42:47;20.90;59.70
63277;DHT22;49403;51.046;13.780;2023-07-09T02:43:18;20.90;59.40
63277;DHT22;49403;51.046;13.780;2023-07-09T02:43:49;21.00;59.40
63277;DHT22;49403;51.046;13.780;2023-07-09T02:44:20;21.00;59.40
63277;DHT22;49403;51.046;13.780;2023-07-09T02:44:51;21.00;59.60
63277;DHT22;49403;51.046;13.780;2023-07-09T02:45:22;21.00;59.40
63277;DHT22;49403;51.046;13.780;2023-07-09T02:45:53;21.00;59.40
63277;DHT22;49403;51.046;13.780;2023-07-09T02:46:24;20.70;59.10
63277;DHT22;49403;51.046;13.780;2023-07-09T02:46:55;21.00;59.30
63277;DHT22;49403;51.046;13.780;2023-07-09T02:47:26;20.90;59.20
63277;DHT22;49403;51.046;13.780;2023-07-09T02:47:57;20.90;59.20
63277;DHT22;49403;51.046;13.780;2023-07-09T02:48:28;22.00;60.30
63277;DHT22;49403;51.046;13.780;2023-07-09T02:48:59;21.00;59.30
63277;DHT22;49403;51.046;13.780;2023-07-09T02:49:30;21.00;59.30
63277;DHT22;49403;51.046;13.780;2023-07-09T02:50:01;19.50;58.00
63277;DHT22;49403;51.046;13.780;2023-07-09T02:50:33;21.00;59.30
63277;DHT22;49403;51.046;13.780;2023-07-09T02:51:04;21.00;59.10
63277;DHT22;49403;51.046;13.780;2023-07-09T02:51:35;21.00;59.00
63277;DHT22;49403;51.046;13.780;2023-07-09T02:52:06;21.10;58.90
63277;DHT22;49403;51.046;13.780;2023-07-09T02:52:37;21.10;58.90
63277;DHT22;49403;51.046;13.780;2023-07-09T02:53:08;21.10;58.70
63277;DHT22;49403;51.046;13.780;2023-07-09T02:53:41;21.00;58.50
63277;DHT22;49403;51.046;13.780;2023-07-09T02:54:12;21.00;58.50
63277;DHT22;49403;51.046;13.780;2023-07-09T02:54:43;20.80;58.40
63277;DHT22;49403;51.046;13.780;2023-07-09T02:55:14;21.00;58.70
63277;DHT22;49403;51.046;13.780;2023-07-09T02:55:45;21.00;58.70
63277;DHT22;49403;51.046;13.780;2023-07-09T02:56:16;21.00;58.70
63277;DHT22;49403;51.046;13.780;2023-07-09T02:56:47;20.70;58.50
63277;DHT22;49403;51.046;13.780;2023-07-09T02:57:21;21.00;58.60
63277;DHT22;49403;51.046;13.780;2023-07-09T02:57:52;21.40;58.90
63277;DHT22;49403;51.046;13.780;2023-07-09T02:58:27;21.00;58.60
63277;DHT22;49403;51.046;13.780;2023-07-09T03:00:40;20.80;58.50
63277;DHT22;49403;51.046;13.780;2023-07-09T03:01:47;21.00;58.60
63277;DHT22;49403;51.046;13.780;2023-07-09T03:02:18;20.10;57.70
63277;DHT22;49403;51.046;13.780;2023-07-09T03:02:49;21.00;58.60
63277;DHT22;49403;51.046;13.780;2023-07-09T03:03:20;21.00;58.60
63277;DHT22;49403;51.046;13.780;2023-07-09T03:03:54;20.90;58.50
63277;DHT22;49403;51.046;13.780;2023-07-09T03:04:25;20.90;58.60
63277;DHT22;49403;51.046;13.780;2023-07-09T03:04:56;20.90;58.80
63277;DHT22;49403;51.046;13.780;2023-07-09T03:05:27;21.10;58.90
63277;DHT22;49403;51.046;13.780;2023-07-09T03:06:01;20.80;58.70
63277;DHT22;49403;51.046;13.780;2023-07-09T03:06:32;20.80;58.80
63277;DHT22;49403;51.046;13.780;2023-07-09T03:07:05;20.80;58.80
63277;DHT22;49403;51.046;13.780;2023-07-09T03:07:39;20.80;58.90
63277;DHT22;49403;51.046;13.780;2023-07-09T03:08:10;20.80;58.90
63277;DHT22;49403;51.046;13.780;2023-07-09T03:08:41;20.80;59.00
63277;DHT22;49403;51.046;13.780;2023-07-09T03:09:12;20.70;59.70
63277;DHT22;49403;51.046;13.780;2023-07-09T03:09:43;20.70;59.00
63277;DHT22;49403;51.046;13.780;2023-07-09T03:10:14;20.70;59.20
63277;DHT22;49403;51.046;13.780;2023-07-09T03:10:45;20.70;59.20
63277;DHT22;49403;51.046;13.780;2023-07-09T03:11:19;20.70;59.30
63277;DHT22;49403;51.046;13.780;2023-07-09T03:11:50;20.70;59.40
63277;DHT22;49403;51.046;13.780;2023-07-09T03:12:24;20.70;59.30
63277;DHT22;49403;51.046;13.780;2023-07-09T03:12:55;20.70;59.30
63277;DHT22;49403;51.046;13.780;2023-07-09T03:13:26;20.70;59.30
63277;DHT22;49403;51.046;13.780;2023-07-09T03:14:00;20.70;59.30
63277;DHT22;49403;51.046;13.780;2023-07-09T03:14:31;20.80;59.30
63277;DHT22;49403;51.046;13.780;2023-07-09T03:15:03;20.70;58.90
63277;DHT22;49403;51.046;13.780;2023-07-09T03:15:34;20.70;58.90
63277;DHT22;49403;51.046;13.780;2023-07-09T03:16:05;20.80;59.10
63277;DHT22;49403;51.046;13.780;2023-07-09T03:16:36;20.80;59.10
63277;DHT22;49403;51.046;13.780;2023-07-09T03:17:10;20.80;59.20
63277;DHT22;49403;51.046;13.780;2023-07-09T03:17:41;20.80;59.20
63277;DHT22;49403;51.046;13.780;2023-07-09T03:18:12;22.10;60.40
63277;DHT22;49403;51.046;13.780;2023-07-09T03:18:43;20.80;59.20
63277;DHT22;49403;51.046;13.780;2023-07-09T03:19:14;20.90;59.10
63277;DHT22;49403;51.046;13.780;2023-07-09T03:19:45;20.80;59.00
63277;DHT22;49403;51.046;13.780;2023-07-09T03:20:16;20.80;59.00
63277;DHT22;49403;51.046;13.780;2023-07-09T03:20:50;20.80;59.60
63277;DHT22;49403;51.046;13.780;2023-07-09T03:21:24;20.70;58.80
63277;DHT22;49403;51.046;13.780;2023-07-09T03:21:58;20.90;58.90
63277;DHT22;49403;51.046;13.780;2023-07-09T03:22:29;20.80;58.90
63277;DHT22;49403;51.046;13.780;2023-07-09T03:23:00;20.80;58.90
63277;DHT22;49403;51.046;13.780;2023-07-09T03:23:31;20.80;58.90
63277;DHT22;49403;51.046;13.780;2023-07-09T03:24:02;22.10;60.10
63277;DHT22;49403;51.046;13.780;2023-07-09T03:24:33;20.90;58.90
63277;DHT22;49403;51.046;13.780;2023-07-09T03:25:04;20.90;58.90
63277;DHT22;49403;51.046;13.780;2023-07-09T03:25:39;20.90;58.90
63277;DHT22;49403;51.046;13.780;2023-07-09T03:26:10;22.40;60.20
63277;DHT22;49403;51.046;13.780;2023-07-09T03:26:42;20.90;58.90
63277;DHT22;49403;51.046;13.780;2023-07-09T03:27:15;20.90;59.50